sensor_id;sensor_type;location;lat;lon;timestamp;P1;durP1;ratioP1;P2;durP2;ratioP2
21274;SDS011;36472;52.170;20.884;2024-03-17T00:05:54;6.88;;;2.25;;
21274;SDS011;36472;52.170;20.884;2024-03-17T00:08:24;11.57;;;2.50;;
21274;SDS011;36472;52.170;20.884;2024-03-17T00:10:53;7.65;;;2.08;;
21274;SDS011;36472;52.170;20.884;2024-03-17T00:13:21;7.65;;;2.85;;
21274;SDS011;36472;52.170;20.884;2024-03-17T00:15:49;7.45;;;2.72;;
21274;SDS011;36472;52.170;20.884;2024-03-17T00:18:17;6.05;;;2.45;;
21274;SDS011;36472;52.170;20.884;2024-03-17T00:20:45;11.48;;;2.75;;
21274;SDS011;36472;52.170;20.884;2024-03-17T00:23:13;11.18;;;2.40;;
21274;SDS011;36472;52.170;20.884;2024-03-17T00:25:40;13.23;;;2.28;;
21274;SDS011;36472;52.170;20.884;2024-03-17T00:28:09;9.18;;;2.00;;
21274;SDS011;36472;52.170;20.884;2024-03-17T00:30:38;7.55;;;2.20;;
21274;SDS011;36472;52.170;20.884;2024-03-17T00:33:08;5.38;;;1.67;;
21274;SDS011;36472;52.170;20.884;2024-03-17T00:35:36;11.23;;;2.40;;
21274;SDS011;36472;52.170;20.884;2024-03-17T00:38:04;7.90;;;1.70;;
21274;SDS011;36472;52.170;20.884;2024-03-17T00:40:36;9.00;;;2.45;;
21274;SDS011;36472;52.170;20.884;2024-03-17T00:43:04;9.20;;;1.67;;
21274;SDS011;36472;52.170;20.884;2024-03-17T00:45:32;12.38;;;2.85;;
21274;SDS011;36472;52.170;20.884;2024-03-17T00:48:00;8.60;;;2.25;;
21274;SDS011;36472;52.170;20.884;2024-03-17T00:50:28;8.57;;;2.15;;
21274;SDS011;36472;52.170;20.884;2024-03-17T00:52:55;7.90;;;2.15;;
21274;SDS011;36472;52.170;20.884;2024-03-17T00:55:22;10.20;;;2.22;;
21274;SDS011;36472;52.170;20.884;2024-03-17T00:57:50;6.85;;;1.77;;
21274;SDS011;36472;52.170;20.884;2024-03-17T01:00:18;8.38;;;2.30;;
21274;SDS011;36472;52.170;20.884;2024-03-17T01:02:47;5.20;;;1.88;;
21274;SDS011;36472;52.170;20.884;2024-03-17T01:05:15;9.07;;;2.25;;
21274;SDS011;36472;52.170;20.884;2024-03-17T01:07:43;6.65;;;2.30;;
21274;SDS011;36472;52.170;20.884;2024-03-17T01:10:10;7.28;;;1.95;;
21274;SDS011;36472;52.170;20.884;2024-03-17T01:12:38;8.05;;;2.13;;
21274;SDS011;36472;52.170;20.884;2024-03-17T01:15:05;5.78;;;1.73;;
21274;SDS011;36472;52.170;20.884;2024-03-17T01:17:34;10.77;;;2.05;;
21274;SDS011;36472;52.170;20.884;2024-03-17T01:20:03;8.15;;;1.83;;
21274;SDS011;36472;52.170;20.884;2024-03-17T01:22:32;9.93;;;2.67;;
21274;SDS011;36472;52.170;20.884;2024-03-17T01:24:59;6.20;;;2.03;;
21274;SDS011;36472;52.170;20.884;2024-03-17T01:27:27;9.57;;;1.98;;
21274;SDS011;36472;52.170;20.884;2024-03-17T01:29:54;9.02;;;2.20;;
21274;SDS011;36472;52.170;20.884;2024-03-17T01:32:22;7.45;;;1.92;;
21274;SDS011;36472;52.170;20.884;2024-03-17T01:34:49;9.82;;;2.53;;
21274;SDS011;36472;52.170;20.884;2024-03-17T01:37:19;10.10;;;2.42;;
21274;SDS011;36472;52.170;20.884;2024-03-17T01:39:46;11.63;;;2.75;;
21274;SDS011;36472;52.170;20.884;2024-03-17T01:42:15;8.15;;;2.22;;
21274;SDS011;36472;52.170;20.884;2024-03-17T01:44:42;8.90;;;2.63;;
21274;SDS011;36472;52.170;20.884;2024-03-17T01:47:10;9.88;;;2.42;;
21274;SDS011;36472;52.170;20.884;2024-03-17T01:49:37;11.85;;;2.55;;
21274;SDS011;36472;52.170;20.884;2024-03-17T01:52:05;8.23;;;2.30;;
21274;SDS011;36472;52.170;20.884;2024-03-17T01:54:34;7.53;;;2.30;;
21274;SDS011;36472;52.170;20.884;2024-03-17T01:57:03;9.85;;;2.88;;
21274;SDS011;36472;52.170;20.884;2024-03-17T01:59:30;10.48;;;2.72;;
21274;SDS011;36472;52.170;20.884;2024-03-17T02:01:59;9.68;;;2.40;;
21274;SDS011;36472;52.170;20.884;2024-03-17T02:04:26;12.80;;;2.72;;
21274;SDS011;36472;52.170;20.884;2024-03-17T02:06:54;12.07;;;3.15;;
21274;SDS011;36472;52.170;20.884;2024-03-17T02:09:21;14.40;;;3.15;;
21274;SDS011;36472;52.170;20.884;2024-03-17T02:11:52;12.57;;;2.53;;
21274;SDS011;36472;52.170;20.884;2024-03-17T02:14:19;13.55;;;2.40;;
21274;SDS011;36472;52.170;20.884;2024-03-17T02:16:47;12.60;;;2.55;;
21274;SDS011;36472;52.170;20.884;2024-03-17T02:19:15;8.32;;;2.50;;
21274;SDS011;36472;52.170;20.884;2024-03-17T02:21:42;7.47;;;2.67;;
21274;SDS011;36472;52.170;20.884;2024-03-17T02:24:11;10.50;;;2.67;;
21274;SDS011;36472;52.170;20.884;2024-03-17T02:26:39;10.82;;;2.42;;
21274;SDS011;36472;52.170;20.884;2024-03-17T02:29:06;10.75;;;2.40;;
21274;SDS011;36472;52.170;20.884;2024-03-17T02:31:35;9.10;;;2.58;;
21274;SDS011;36472;52.170;20.884;2024-03-17T02:34:02;6.78;;;2.33;;
21274;SDS011;36472;52.170;20.884;2024-03-17T02:36:30;11.88;;;2.97;;
21274;SDS011;36472;52.170;20.884;2024-03-17T02:38:58;13.20;;;2.65;;
21274;SDS011;36472;52.170;20.884;2024-03-17T02:41:44;11.63;;;2.72;;
21274;SDS011;36472;52.170;20.884;2024-03-17T02:44:12;9.95;;;2.50;;
21274;SDS011;36472;52.170;20.884;2024-03-17T02:46:40;14.57;;;2.47;;
21274;SDS011;36472;52.170;20.884;2024-03-17T02:49:09;10.23;;;2.97;;
21274;SDS011;36472;52.170;20.884;2024-03-17T02:51:39;11.52;;;3.03;;
21274;SDS011;36472;52.170;20.884;2024-03-17T02:54:07;9.27;;;2.60;;
21274;SDS011;36472;52.170;20.884;2024-03-17T02:56:35;10.80;;;2.40;;
21274;SDS011;36472;52.170;20.884;2024-03-17T02:59:05;10.95;;;2.95;;
21274;SDS011;36472;52.170;20.884;2024-03-17T03:01:33;14.05;;;2.88;;
21274;SDS011;36472;52.170;20.884;2024-03-17T03:04:01;11.40;;;3.38;;
21274;SDS011;36472;52.170;20.884;2024-03-17T03:06:29;12.88;;;2.80;;
21274;SDS011;36472;52.170;20.884;2024-03-17T03:08:57;11.20;;;2.70;;
21274;SDS011;36472;52.170;20.884;2024-03-17T03:11:25;17.58;;;2.90;;
21274;SDS011;36472;52.170;20.884;2024-03-17T03:13:53;13.93;;;3.58;;
21274;SDS011;36472;52.170;20.884;2024-03-17T03:16:22;4.97;;;2.30;;
21274;SDS011;36472;52.170;20.884;2024-03-17T03:18:50;11.13;;;3.20;;
21274;SDS011;36472;52.170;20.884;2024-03-17T03:21:18;8.93;;;2.55;;
21274;SDS011;36472;52.170;20.884;2024-03-17T03:23:47;9.20;;;3.35;;
21274;SDS011;36472;52.170;20.884;2024-03-17T03:26:15;12.40;;;3.03;;
21274;SDS011;36472;52.170;20.884;2024-03-17T03:28:44;8.88;;;2.50;;
21274;SDS011;36472;52.170;20.884;2024-03-17T03:31:12;10.40;;;2.83;;
21274;SDS011;36472;52.170;20.884;2024-03-17T03:33:42;10.80;;;3.20;;
21274;SDS011;36472;52.170;20.884;2024-03-17T03:36:10;8.95;;;2.67;;
21274;SDS011;36472;52.170;20.884;2024-03-17T03:38:41;11.00;;;2.63;;
21274;SDS011;36472;52.170;20.884;2024-03-17T03:41:09;10.07;;;3.10;;
21274;SDS011;36472;52.170;20.884;2024-03-17T03:43:39;6.22;;;2.97;;
21274;SDS011;36472;52.170;20.884;2024-03-17T03:46:07;11.10;;;3.75;;
21274;SDS011;36472;52.170;20.884;2024-03-17T03:48:36;12.13;;;3.35;;
21274;SDS011;36472;52.170;20.884;2024-03-17T03:51:06;12.38;;;3.40;;
21274;SDS011;36472;52.170;20.884;2024-03-17T03:53:35;11.77;;;3.45;;
21274;SDS011;36472;52.170;20.884;2024-03-17T03:56:04;11.50;;;3.25;;
21274;SDS011;36472;52.170;20.884;2024-03-17T03:58:33;8.80;;;3.40;;
21274;SDS011;36472;52.170;20.884;2024-03-17T04:01:03;10.40;;;3.47;;
21274;SDS011;36472;52.170;20.884;2024-03-17T04:03:32;12.18;;;3.53;;
21274;SDS011;36472;52.170;20.884;2024-03-17T04:06:02;11.05;;;3.60;;
21274;SDS011;36472;52.170;20.884;2024-03-17T04:08:33;11.10;;;3.65;;
21274;SDS011;36472;52.170;20.884;2024-03-17T04:11:02;16.10;;;3.35;;
21274;SDS011;36472;52.170;20.884;2024-03-17T04:13:31;10.18;;;3.35;;
21274;SDS011;36472;52.170;20.884;2024-03-17T04:15:59;13.48;;;3.40;;
21274;SDS011;36472;52.170;20.884;2024-03-17T04:18:31;10.20;;;3.33;;
21274;SDS011;36472;52.170;20.884;2024-03-17T04:21:01;7.82;;;2.90;;
21274;SDS011;36472;52.170;20.884;2024-03-17T04:23:33;8.43;;;2.90;;
21274;SDS011;36472;52.170;20.884;2024-03-17T04:26:03;8.95;;;2.70;;
21274;SDS011;36472;52.170;20.884;2024-03-17T04:28:33;10.05;;;3.03;;
21274;SDS011;36472;52.170;20.884;2024-03-17T04:31:02;8.32;;;2.60;;
21274;SDS011;36472;52.170;20.884;2024-03-17T04:33:31;7.28;;;2.90;;
21274;SDS011;36472;52.170;20.884;2024-03-17T04:36:00;10.13;;;2.95;;
21274;SDS011;36472;52.170;20.884;2024-03-17T04:38:29;8.85;;;3.20;;
21274;SDS011;36472;52.170;20.884;2024-03-17T04:40:58;9.45;;;3.03;;
21274;SDS011;36472;52.170;20.884;2024-03-17T04:43:31;6.13;;;2.60;;
21274;SDS011;36472;52.170;20.884;2024-03-17T04:46:00;11.68;;;3.38;;
21274;SDS011;36472;52.170;20.884;2024-03-17T04:48:31;8.27;;;3.25;;
21274;SDS011;36472;52.170;20.884;2024-03-17T04:50:59;11.52;;;4.18;;
21274;SDS011;36472;52.170;20.884;2024-03-17T04:53:28;9.45;;;3.38;;
21274;SDS011;36472;52.170;20.884;2024-03-17T04:56:01;10.93;;;2.95;;
21274;SDS011;36472;52.170;20.884;2024-03-17T04:58:30;12.45;;;3.58;;
21274;SDS011;36472;52.170;20.884;2024-03-17T05:01:03;10.70;;;3.13;;
21274;SDS011;36472;52.170;20.884;2024-03-17T05:03:34;11.32;;;3.67;;
21274;SDS011;36472;52.170;20.884;2024-03-17T05:06:03;12.45;;;4.57;;
21274;SDS011;36472;52.170;20.884;2024-03-17T05:08:33;6.55;;;2.95;;
21274;SDS011;36472;52.170;20.884;2024-03-17T05:11:03;11.82;;;3.72;;
21274;SDS011;36472;52.170;20.884;2024-03-17T05:13:32;7.55;;;2.80;;
21274;SDS011;36472;52.170;20.884;2024-03-17T05:16:02;8.27;;;3.75;;
21274;SDS011;36472;52.170;20.884;2024-03-17T05:18:31;10.38;;;3.65;;
21274;SDS011;36472;52.170;20.884;2024-03-17T05:21:00;10.93;;;3.38;;
21274;SDS011;36472;52.170;20.884;2024-03-17T05:23:30;9.85;;;4.60;;
21274;SDS011;36472;52.170;20.884;2024-03-17T05:26:00;9.55;;;3.55;;
21274;SDS011;36472;52.170;20.884;2024-03-17T05:42:14;11.25;;;4.20;;
21274;SDS011;36472;52.170;20.884;2024-03-17T05:44:42;10.90;;;5.00;;
21274;SDS011;36472;52.170;20.884;2024-03-17T05:47:17;10.88;;;4.55;;
21274;SDS011;36472;52.170;20.884;2024-03-17T05:49:45;13.48;;;5.45;;
21274;SDS011;36472;52.170;20.884;2024-03-17T05:52:13;12.00;;;4.65;;
21274;SDS011;36472;52.170;20.884;2024-03-17T05:54:41;10.93;;;4.40;;
21274;SDS011;36472;52.170;20.884;2024-03-17T05:57:09;12.70;;;4.35;;
21274;SDS011;36472;52.170;20.884;2024-03-17T05:59:41;7.60;;;4.65;;
21274;SDS011;36472;52.170;20.884;2024-03-17T06:02:10;14.48;;;4.63;;
21274;SDS011;36472;52.170;20.884;2024-03-17T06:04:37;10.93;;;3.60;;
21274;SDS011;36472;52.170;20.884;2024-03-17T06:07:05;7.78;;;4.28;;
21274;SDS011;36472;52.170;20.884;2024-03-17T06:09:34;9.45;;;3.42;;
21274;SDS011;36472;52.170;20.884;2024-03-17T06:12:02;8.60;;;3.80;;
21274;SDS011;36472;52.170;20.884;2024-03-17T06:14:31;9.68;;;3.47;;
21274;SDS011;36472;52.170;20.884;2024-03-17T06:17:02;9.90;;;3.58;;
21274;SDS011;36472;52.170;20.884;2024-03-17T06:19:31;11.35;;;4.07;;
21274;SDS011;36472;52.170;20.884;2024-03-17T06:21:59;8.57;;;3.63;;
21274;SDS011;36472;52.170;20.884;2024-03-17T06:24:27;11.38;;;3.65;;
21274;SDS011;36472;52.170;20.884;2024-03-17T06:26:56;8.75;;;3.45;;
21274;SDS011;36472;52.170;20.884;2024-03-17T06:29:24;9.18;;;3.40;;
21274;SDS011;36472;52.170;20.884;2024-03-17T06:31:52;10.65;;;3.55;;
21274;SDS011;36472;52.170;20.884;2024-03-17T06:34:21;8.55;;;2.97;;
21274;SDS011;36472;52.170;20.884;2024-03-17T06:36:49;11.35;;;3.28;;
21274;SDS011;36472;52.170;20.884;2024-03-17T06:39:17;6.47;;;2.67;;
21274;SDS011;36472;52.170;20.884;2024-03-17T06:41:47;8.52;;;2.75;;
21274;SDS011;36472;52.170;20.884;2024-03-17T06:44:15;8.98;;;2.83;;
21274;SDS011;36472;52.170;20.884;2024-03-17T06:46:43;9.85;;;2.55;;
21274;SDS011;36472;52.170;20.884;2024-03-17T06:49:12;10.25;;;2.88;;
21274;SDS011;36472;52.170;20.884;2024-03-17T06:51:42;7.03;;;2.30;;
21274;SDS011;36472;52.170;20.884;2024-03-17T06:54:10;6.20;;;2.50;;
21274;SDS011;36472;52.170;20.884;2024-03-17T06:56:38;7.40;;;2.75;;
21274;SDS011;36472;52.170;20.884;2024-03-17T06:59:06;9.23;;;2.92;;
21274;SDS011;36472;52.170;20.884;2024-03-17T07:01:34;10.88;;;3.13;;
21274;SDS011;36472;52.170;20.884;2024-03-17T07:04:02;7.85;;;2.55;;
21274;SDS011;36472;52.170;20.884;2024-03-17T07:06:31;8.85;;;3.00;;
21274;SDS011;36472;52.170;20.884;2024-03-17T07:09:00;7.30;;;3.05;;
21274;SDS011;36472;52.170;20.884;2024-03-17T07:11:29;9.52;;;3.33;;
21274;SDS011;36472;52.170;20.884;2024-03-17T07:13:57;10.38;;;3.15;;
21274;SDS011;36472;52.170;20.884;2024-03-17T07:16:25;7.22;;;2.17;;
21274;SDS011;36472;52.170;20.884;2024-03-17T07:18:53;10.82;;;3.63;;
21274;SDS011;36472;52.170;20.884;2024-03-17T07:21:22;10.32;;;3.53;;
21274;SDS011;36472;52.170;20.884;2024-03-17T07:23:50;10.45;;;2.90;;
21274;SDS011;36472;52.170;20.884;2024-03-17T07:26:19;11.35;;;3.30;;
21274;SDS011;36472;52.170;20.884;2024-03-17T07:28:47;6.22;;;2.67;;
21274;SDS011;36472;52.170;20.884;2024-03-17T07:31:15;9.90;;;2.55;;
21274;SDS011;36472;52.170;20.884;2024-03-17T07:33:43;7.18;;;2.58;;
21274;SDS011;36472;52.170;20.884;2024-03-17T07:36:11;10.68;;;2.75;;
21274;SDS011;36472;52.170;20.884;2024-03-17T07:38:39;9.75;;;3.05;;
21274;SDS011;36472;52.170;20.884;2024-03-17T07:41:08;10.85;;;2.80;;
21274;SDS011;36472;52.170;20.884;2024-03-17T07:43:38;4.93;;;2.55;;
21274;SDS011;36472;52.170;20.884;2024-03-17T07:50:39;13.10;;;3.85;;
21274;SDS011;36472;52.170;20.884;2024-03-17T07:53:06;8.38;;;2.78;;
21274;SDS011;36472;52.170;20.884;2024-03-17T07:55:35;10.50;;;3.20;;
21274;SDS011;36472;52.170;20.884;2024-03-17T07:58:03;9.07;;;2.70;;
21274;SDS011;36472;52.170;20.884;2024-03-17T08:00:34;7.35;;;3.38;;
21274;SDS011;36472;52.170;20.884;2024-03-17T08:03:03;9.18;;;2.70;;
21274;SDS011;36472;52.170;20.884;2024-03-17T08:05:33;12.20;;;3.45;;
21274;SDS011;36472;52.170;20.884;2024-03-17T08:08:01;7.93;;;3.05;;
21274;SDS011;36472;52.170;20.884;2024-03-17T08:10:28;8.02;;;3.08;;
21274;SDS011;36472;52.170;20.884;2024-03-17T08:12:56;10.95;;;3.40;;
21274;SDS011;36472;52.170;20.884;2024-03-17T08:15:24;8.10;;;3.33;;
21274;SDS011;36472;52.170;20.884;2024-03-17T08:17:54;10.60;;;3.20;;
21274;SDS011;36472;52.170;20.884;2024-03-17T08:20:22;10.25;;;3.58;;
21274;SDS011;36472;52.170;20.884;2024-03-17T08:22:50;5.97;;;3.20;;
21274;SDS011;36472;52.170;20.884;2024-03-17T08:25:18;8.25;;;3.05;;
21274;SDS011;36472;52.170;20.884;2024-03-17T08:27:46;7.32;;;2.88;;
21274;SDS011;36472;52.170;20.884;2024-03-17T08:30:14;6.10;;;2.78;;
21274;SDS011;36472;52.170;20.884;2024-03-17T08:32:42;9.88;;;3.42;;
21274;SDS011;36472;52.170;20.884;2024-03-17T08:35:12;7.55;;;3.42;;
21274;SDS011;36472;52.170;20.884;2024-03-17T08:37:40;7.63;;;3.53;;
21274;SDS011;36472;52.170;20.884;2024-03-17T08:40:10;13.05;;;4.22;;
21274;SDS011;36472;52.170;20.884;2024-03-17T08:42:39;7.38;;;3.15;;
21274;SDS011;36472;52.170;20.884;2024-03-17T08:45:08;9.45;;;3.42;;
21274;SDS011;36472;52.170;20.884;2024-03-17T08:47:38;8.35;;;3.83;;
21274;SDS011;36472;52.170;20.884;2024-03-17T08:50:07;8.75;;;4.18;;
21274;SDS011;36472;52.170;20.884;2024-03-17T08:52:39;8.88;;;3.30;;
21274;SDS011;36472;52.170;20.884;2024-03-17T08:55:07;10.45;;;3.75;;
21274;SDS011;36472;52.170;20.884;2024-03-17T09:02:13;8.52;;;3.45;;
21274;SDS011;36472;52.170;20.884;2024-03-17T09:04:41;12.73;;;3.80;;
21274;SDS011;36472;52.170;20.884;2024-03-17T09:11:43;10.05;;;3.40;;
21274;SDS011;36472;52.170;20.884;2024-03-17T09:14:11;12.15;;;4.32;;
21274;SDS011;36472;52.170;20.884;2024-03-17T09:21:12;6.25;;;2.85;;
21274;SDS011;36472;52.170;20.884;2024-03-17T09:23:42;5.80;;;2.90;;
21274;SDS011;36472;52.170;20.884;2024-03-17T09:26:10;6.22;;;3.65;;
21274;SDS011;36472;52.170;20.884;2024-03-17T09:28:41;9.52;;;3.97;;
21274;SDS011;36472;52.170;20.884;2024-03-17T09:31:09;11.25;;;4.03;;
21274;SDS011;36472;52.170;20.884;2024-03-17T09:33:37;8.35;;;3.67;;
21274;SDS011;36472;52.170;20.884;2024-03-17T09:36:06;6.90;;;3.30;;
21274;SDS011;36472;52.170;20.884;2024-03-17T09:38:36;7.13;;;3.72;;
21274;SDS011;36472;52.170;20.884;2024-03-17T09:41:05;8.60;;;3.33;;
21274;SDS011;36472;52.170;20.884;2024-03-17T09:43:34;12.68;;;4.30;;
21274;SDS011;36472;52.170;20.884;2024-03-17T09:46:04;9.43;;;4.13;;
21274;SDS011;36472;52.170;20.884;2024-03-17T09:48:34;8.55;;;4.68;;
21274;SDS011;36472;52.170;20.884;2024-03-17T09:51:03;11.45;;;4.85;;
21274;SDS011;36472;52.170;20.884;2024-03-17T09:53:32;8.00;;;3.60;;
21274;SDS011;36472;52.170;20.884;2024-03-17T09:56:03;7.18;;;3.25;;
21274;SDS011;36472;52.170;20.884;2024-03-17T09:58:37;4.18;;;2.50;;
21274;SDS011;36472;52.170;20.884;2024-03-17T10:01:07;5.05;;;2.63;;
21274;SDS011;36472;52.170;20.884;2024-03-17T10:03:39;6.35;;;2.72;;
21274;SDS011;36472;52.170;20.884;2024-03-17T10:06:11;5.18;;;2.38;;
21274;SDS011;36472;52.170;20.884;2024-03-17T10:13:12;5.22;;;2.97;;
21274;SDS011;36472;52.170;20.884;2024-03-17T10:15:45;4.82;;;2.90;;
21274;SDS011;36472;52.170;20.884;2024-03-17T10:18:21;6.03;;;2.80;;
21274;SDS011;36472;52.170;20.884;2024-03-17T10:20:50;8.93;;;3.47;;
21274;SDS011;36472;52.170;20.884;2024-03-17T10:23:22;8.43;;;3.45;;
21274;SDS011;36472;52.170;20.884;2024-03-17T10:25:50;7.05;;;2.97;;
21274;SDS011;36472;52.170;20.884;2024-03-17T10:28:18;7.45;;;3.08;;
21274;SDS011;36472;52.170;20.884;2024-03-17T10:30:56;6.07;;;3.03;;
21274;SDS011;36472;52.170;20.884;2024-03-17T10:33:27;6.82;;;3.20;;
21274;SDS011;36472;52.170;20.884;2024-03-17T10:35:59;8.90;;;3.20;;
21274;SDS011;36472;52.170;20.884;2024-03-17T10:38:28;6.45;;;3.83;;
21274;SDS011;36472;52.170;20.884;2024-03-17T10:40:56;5.13;;;3.00;;
21274;SDS011;36472;52.170;20.884;2024-03-17T10:43:25;5.25;;;3.10;;
21274;SDS011;36472;52.170;20.884;2024-03-17T10:45:53;5.97;;;3.08;;
21274;SDS011;36472;52.170;20.884;2024-03-17T10:48:26;6.22;;;2.72;;
21274;SDS011;36472;52.170;20.884;2024-03-17T10:51:00;6.82;;;3.03;;
21274;SDS011;36472;52.170;20.884;2024-03-17T10:53:30;4.88;;;2.60;;
21274;SDS011;36472;52.170;20.884;2024-03-17T10:56:02;5.68;;;2.92;;
21274;SDS011;36472;52.170;20.884;2024-03-17T10:58:35;5.28;;;2.55;;
21274;SDS011;36472;52.170;20.884;2024-03-17T11:01:12;6.82;;;2.45;;
21274;SDS011;36472;52.170;20.884;2024-03-17T11:03:43;4.38;;;2.28;;
21274;SDS011;36472;52.170;20.884;2024-03-17T11:06:16;3.42;;;2.65;;
21274;SDS011;36472;52.170;20.884;2024-03-17T11:08:45;5.60;;;2.60;;
21274;SDS011;36472;52.170;20.884;2024-03-17T11:11:14;4.55;;;3.13;;
21274;SDS011;36472;52.170;20.884;2024-03-17T11:14:15;4.80;;;2.90;;
21274;SDS011;36472;52.170;20.884;2024-03-17T11:16:44;6.05;;;3.15;;
21274;SDS011;36472;52.170;20.884;2024-03-17T11:19:15;4.65;;;3.38;;
21274;SDS011;36472;52.170;20.884;2024-03-17T11:21:44;4.95;;;3.20;;
21274;SDS011;36472;52.170;20.884;2024-03-17T11:24:19;5.45;;;2.85;;
21274;SDS011;36472;52.170;20.884;2024-03-17T11:26:48;3.00;;;2.53;;
21274;SDS011;36472;52.170;20.884;2024-03-17T11:29:26;4.85;;;2.92;;
21274;SDS011;36472;52.170;20.884;2024-03-17T11:31:55;2.75;;;2.08;;
21274;SDS011;36472;52.170;20.884;2024-03-17T11:34:32;5.07;;;2.42;;
21274;SDS011;36472;52.170;20.884;2024-03-17T11:37:01;4.95;;;3.17;;
21274;SDS011;36472;52.170;20.884;2024-03-17T11:39:54;4.15;;;3.35;;
21274;SDS011;36472;52.170;20.884;2024-03-17T11:42:22;3.85;;;2.95;;
21274;SDS011;36472;52.170;20.884;2024-03-17T11:44:54;3.75;;;2.38;;
21274;SDS011;36472;52.170;20.884;2024-03-17T11:47:32;3.45;;;2.42;;
21274;SDS011;36472;52.170;20.884;2024-03-17T11:50:07;2.78;;;1.60;;
21274;SDS011;36472;52.170;20.884;2024-03-17T11:52:37;2.05;;;1.42;;
21274;SDS011;36472;52.170;20.884;2024-03-17T11:55:15;1.60;;;1.35;;
21274;SDS011;36472;52.170;20.884;2024-03-17T11:57:43;2.85;;;2.10;;
21274;SDS011;36472;52.170;20.884;2024-03-17T12:04:46;2.40;;;2.20;;
21274;SDS011;36472;52.170;20.884;2024-03-17T12:07:17;1.75;;;1.55;;
21274;SDS011;36472;52.170;20.884;2024-03-17T12:09:47;3.30;;;2.60;;
21274;SDS011;36472;52.170;20.884;2024-03-17T12:12:16;2.80;;;2.28;;
21274;SDS011;36472;52.170;20.884;2024-03-17T12:14:46;2.95;;;2.10;;
21274;SDS011;36472;52.170;20.884;2024-03-17T12:17:22;2.13;;;1.92;;
21274;SDS011;36472;52.170;20.884;2024-03-17T12:19:51;4.65;;;2.28;;
21274;SDS011;36472;52.170;20.884;2024-03-17T12:22:21;3.03;;;2.50;;
21274;SDS011;36472;52.170;20.884;2024-03-17T12:24:51;1.92;;;1.75;;
21274;SDS011;36472;52.170;20.884;2024-03-17T12:27:21;2.00;;;1.80;;
21274;SDS011;36472;52.170;20.884;2024-03-17T12:29:51;2.97;;;2.08;;
21274;SDS011;36472;52.170;20.884;2024-03-17T12:32:20;3.92;;;2.00;;
21274;SDS011;36472;52.170;20.884;2024-03-17T12:34:50;3.30;;;2.20;;
21274;SDS011;36472;52.170;20.884;2024-03-17T12:37:22;2.17;;;1.80;;
21274;SDS011;36472;52.170;20.884;2024-03-17T12:39:51;4.35;;;3.00;;
21274;SDS011;36472;52.170;20.884;2024-03-17T12:42:22;3.28;;;2.10;;
21274;SDS011;36472;52.170;20.884;2024-03-17T12:44:52;2.88;;;2.20;;
21274;SDS011;36472;52.170;20.884;2024-03-17T12:47:21;3.33;;;2.60;;
21274;SDS011;36472;52.170;20.884;2024-03-17T12:49:51;3.92;;;2.63;;
21274;SDS011;36472;52.170;20.884;2024-03-17T12:52:22;3.17;;;2.53;;
21274;SDS011;36472;52.170;20.884;2024-03-17T12:54:58;2.60;;;1.80;;
21274;SDS011;36472;52.170;20.884;2024-03-17T12:57:40;5.20;;;2.10;;
21274;SDS011;36472;52.170;20.884;2024-03-17T13:00:26;3.33;;;2.03;;
21274;SDS011;36472;52.170;20.884;2024-03-17T13:03:00;3.10;;;1.92;;
21274;SDS011;36472;52.170;20.884;2024-03-17T13:05:30;2.42;;;1.95;;
21274;SDS011;36472;52.170;20.884;2024-03-17T13:08:00;3.97;;;2.13;;
21274;SDS011;36472;52.170;20.884;2024-03-17T13:10:29;2.90;;;2.10;;
21274;SDS011;36472;52.170;20.884;2024-03-17T13:12:59;4.43;;;2.60;;
21274;SDS011;36472;52.170;20.884;2024-03-17T13:20:01;3.83;;;2.42;;
21274;SDS011;36472;52.170;20.884;2024-03-17T13:22:30;3.20;;;2.72;;
21274;SDS011;36472;52.170;20.884;2024-03-17T13:25:00;3.42;;;2.60;;
21274;SDS011;36472;52.170;20.884;2024-03-17T13:27:28;3.78;;;2.58;;
21274;SDS011;36472;52.170;20.884;2024-03-17T13:29:56;2.50;;;2.00;;
21274;SDS011;36472;52.170;20.884;2024-03-17T15:38:59;4.65;;;3.22;;
21274;SDS011;36472;52.170;20.884;2024-03-17T15:41:27;4.90;;;3.50;;
21274;SDS011;36472;52.170;20.884;2024-03-17T15:43:55;3.45;;;3.00;;
21274;SDS011;36472;52.170;20.884;2024-03-17T15:46:23;4.32;;;2.95;;
21274;SDS011;36472;52.170;20.884;2024-03-17T15:48:51;3.90;;;2.90;;
21274;SDS011;36472;52.170;20.884;2024-03-17T15:51:19;3.65;;;2.85;;
21274;SDS011;36472;52.170;20.884;2024-03-17T15:53:47;5.15;;;3.10;;
21274;SDS011;36472;52.170;20.884;2024-03-17T15:56:16;3.70;;;2.97;;
21274;SDS011;36472;52.170;20.884;2024-03-17T15:58:44;6.78;;;4.18;;
21274;SDS011;36472;52.170;20.884;2024-03-17T16:01:13;2.85;;;2.50;;
21274;SDS011;36472;52.170;20.884;2024-03-17T16:03:41;2.85;;;2.53;;
21274;SDS011;36472;52.170;20.884;2024-03-17T16:10:45;3.33;;;2.75;;
21274;SDS011;36472;52.170;20.884;2024-03-17T16:13:20;3.95;;;2.78;;
21274;SDS011;36472;52.170;20.884;2024-03-17T16:15:51;3.85;;;2.88;;
21274;SDS011;36472;52.170;20.884;2024-03-17T16:18:21;4.55;;;3.30;;
21274;SDS011;36472;52.170;20.884;2024-03-17T16:20:56;5.18;;;3.33;;
21274;SDS011;36472;52.170;20.884;2024-03-17T16:23:32;3.92;;;3.10;;
21274;SDS011;36472;52.170;20.884;2024-03-17T16:26:06;4.70;;;3.55;;
21274;SDS011;36472;52.170;20.884;2024-03-17T16:28:36;4.50;;;3.45;;
21274;SDS011;36472;52.170;20.884;2024-03-17T16:31:05;5.97;;;4.10;;
21274;SDS011;36472;52.170;20.884;2024-03-17T16:33:33;4.72;;;3.72;;
21274;SDS011;36472;52.170;20.884;2024-03-17T16:36:02;5.20;;;4.15;;
21274;SDS011;36472;52.170;20.884;2024-03-17T16:38:31;5.13;;;4.05;;
21274;SDS011;36472;52.170;20.884;2024-03-17T16:41:00;6.10;;;4.65;;
21274;SDS011;36472;52.170;20.884;2024-03-17T16:43:43;7.75;;;5.07;;
21274;SDS011;36472;52.170;20.884;2024-03-17T16:49:38;9.05;;;5.68;;
21274;SDS011;36472;52.170;20.884;2024-03-17T16:52:06;5.85;;;4.82;;
21274;SDS011;36472;52.170;20.884;2024-03-17T16:54:34;6.72;;;4.50;;
21274;SDS011;36472;52.170;20.884;2024-03-17T16:57:03;4.53;;;3.80;;
21274;SDS011;36472;52.170;20.884;2024-03-17T16:59:33;5.43;;;3.83;;
21274;SDS011;36472;52.170;20.884;2024-03-17T17:02:01;6.15;;;3.70;;
21274;SDS011;36472;52.170;20.884;2024-03-17T17:04:29;4.50;;;2.78;;
21274;SDS011;36472;52.170;20.884;2024-03-17T17:06:57;3.08;;;2.78;;
21274;SDS011;36472;52.170;20.884;2024-03-17T17:09:25;3.65;;;2.47;;
21274;SDS011;36472;52.170;20.884;2024-03-17T17:11:56;4.03;;;2.58;;
21274;SDS011;36472;52.170;20.884;2024-03-17T17:14:24;2.90;;;2.53;;
21274;SDS011;36472;52.170;20.884;2024-03-17T17:16:57;2.88;;;2.38;;
21274;SDS011;36472;52.170;20.884;2024-03-17T17:19:26;3.08;;;2.78;;
21274;SDS011;36472;52.170;20.884;2024-03-17T17:21:55;4.80;;;3.33;;
21274;SDS011;36472;52.170;20.884;2024-03-17T17:24:23;3.70;;;3.33;;
21274;SDS011;36472;52.170;20.884;2024-03-17T17:26:52;5.25;;;3.92;;
21274;SDS011;36472;52.170;20.884;2024-03-17T17:29:20;5.15;;;3.85;;
21274;SDS011;36472;52.170;20.884;2024-03-17T17:31:49;6.32;;;3.88;;
21274;SDS011;36472;52.170;20.884;2024-03-17T17:34:18;4.53;;;3.60;;
21274;SDS011;36472;52.170;20.884;2024-03-17T17:36:46;5.50;;;3.72;;
21274;SDS011;36472;52.170;20.884;2024-03-17T17:39:16;5.72;;;3.22;;
21274;SDS011;36472;52.170;20.884;2024-03-17T17:41:45;5.57;;;3.60;;
21274;SDS011;36472;52.170;20.884;2024-03-17T17:44:12;4.03;;;3.30;;
21274;SDS011;36472;52.170;20.884;2024-03-17T17:46:41;6.78;;;3.85;;
21274;SDS011;36472;52.170;20.884;2024-03-17T17:49:09;2.97;;;2.65;;